createdAt,value
2019-02-09T00:00:04.178Z,7.70
2019-02-09T00:02:45.081Z,7.60
2019-02-09T00:05:25.637Z,7.60
2019-02-09T00:08:06.451Z,7.60
2019-02-09T00:10:47.185Z,7.50
2019-02-09T00:13:27.999Z,7.50
2019-02-09T00:16:08.880Z,7.50
2019-02-09T00:18:49.522Z,7.50
2019-02-09T00:21:30.268Z,7.60
2019-02-09T00:24:10.919Z,7.60
2019-02-09T00:26:51.651Z,7.60
2019-02-09T00:29:32.163Z,7.60
2019-02-09T00:32:12.767Z,7.60
2019-02-09T00:34:53.683Z,7.60
2019-02-09T00:37:34.247Z,7.60
2019-02-09T00:40:14.575Z,7.60
2019-02-09T00:42:55.143Z,7.50
2019-02-09T00:45:35.720Z,7.50
2019-02-09T00:48:16.679Z,7.40
2019-02-09T00:50:56.875Z,7.40
2019-02-09T00:53:37.472Z,7.40
2019-02-09T00:56:18.264Z,7.50
2019-02-09T00:58:59.171Z,7.50
2019-02-09T01:01:39.618Z,7.40
2019-02-09T01:04:20.685Z,7.50
2019-02-09T01:07:00.899Z,7.40
2019-02-09T01:09:41.668Z,7.40
2019-02-09T01:12:22.524Z,7.40
2019-02-09T01:15:03.531Z,7.50
2019-02-09T01:17:44.162Z,7.50
2019-02-09T01:20:25.147Z,7.50
2019-02-09T01:23:06.026Z,7.40
2019-02-09T01:25:46.707Z,7.40
2019-02-09T01:28:27.267Z,7.40
2019-02-09T01:31:08.119Z,7.30
2019-02-09T01:33:48.780Z,7.30
2019-02-09T01:36:29.451Z,7.30
2019-02-09T01:39:10.334Z,7.30
2019-02-09T01:41:50.892Z,7.20
2019-02-09T01:44:31.952Z,7.10
2019-02-09T01:47:12.691Z,7.00
2019-02-09T01:49:53.468Z,7.00
2019-02-09T01:52:34.196Z,6.90
2019-02-09T01:55:15.283Z,6.90
2019-02-09T01:57:55.931Z,6.80
2019-02-09T02:00:36.794Z,6.70
2019-02-09T02:03:17.535Z,6.60
2019-02-09T02:05:58.442Z,6.60
2019-02-09T02:08:38.944Z,6.50
2019-02-09T02:11:19.355Z,6.50
2019-02-09T02:13:59.924Z,6.50
2019-02-09T02:16:40.617Z,6.50
2019-02-09T02:19:21.135Z,6.50
2019-02-09T02:22:02.010Z,6.50
2019-02-09T02:24:42.667Z,6.50
2019-02-09T02:27:23.632Z,6.50
2019-02-09T02:30:04.317Z,6.50
2019-02-09T02:32:44.735Z,6.50
2019-02-09T02:35:25.187Z,6.50
2019-02-09T02:38:05.784Z,6.50
2019-02-09T02:40:46.719Z,6.50
2019-02-09T02:43:27.443Z,6.50
2019-02-09T02:46:07.780Z,6.50
2019-02-09T02:48:48.548Z,6.50
2019-02-09T02:51:29.464Z,6.50
2019-02-09T02:54:10.263Z,6.50
2019-02-09T02:56:51.304Z,6.50
2019-02-09T02:59:32.093Z,6.50
2019-02-09T03:02:12.680Z,6.50
2019-02-09T03:04:53.436Z,6.50
2019-02-09T03:07:33.800Z,6.50
2019-02-09T03:10:14.707Z,6.60
2019-02-09T03:12:55.191Z,6.60
2019-02-09T03:15:36.045Z,6.70
2019-02-09T03:18:16.767Z,6.80
2019-02-09T03:20:57.413Z,6.80
2019-02-09T03:23:38.037Z,6.80
2019-02-09T03:26:18.259Z,6.90
2019-02-09T03:28:59.110Z,6.90
2019-02-09T03:31:39.581Z,7.00
2019-02-09T03:34:20.088Z,6.90
2019-02-09T03:37:00.811Z,7.00
2019-02-09T03:39:41.183Z,7.00
2019-02-09T03:42:21.683Z,7.00
2019-02-09T03:45:02.143Z,7.00
2019-02-09T03:47:42.516Z,7.00
2019-02-09T03:50:22.940Z,7.00
2019-02-09T03:53:03.695Z,7.10
2019-02-09T03:55:44.520Z,7.10
2019-02-09T03:58:25.572Z,7.10
2019-02-09T04:01:06.225Z,7.20
2019-02-09T04:03:46.935Z,7.20
2019-02-09T04:06:27.868Z,7.30
2019-02-09T04:09:08.839Z,7.30
2019-02-09T04:11:49.579Z,7.30
2019-02-09T04:14:29.931Z,7.40
2019-02-09T04:17:10.604Z,7.30
2019-02-09T04:19:51.236Z,7.40
2019-02-09T04:22:31.999Z,7.40
2019-02-09T04:25:12.947Z,7.50
2019-02-09T04:27:53.396Z,7.50
2019-02-09T04:30:33.831Z,7.50
2019-02-09T04:33:14.367Z,7.50
2019-02-09T04:35:55.254Z,7.50
2019-02-09T04:38:35.792Z,7.50
2019-02-09T04:41:16.724Z,7.50
2019-02-09T04:43:57.471Z,7.60
2019-02-09T04:46:37.996Z,7.60
2019-02-09T04:49:19.063Z,7.60
2019-02-09T04:51:59.492Z,7.60
2019-02-09T04:54:40.196Z,7.60
2019-02-09T04:57:20.480Z,7.60
2019-02-09T05:00:00.687Z,7.60
2019-02-09T05:02:41.267Z,7.60
2019-02-09T05:05:22.033Z,7.60
2019-02-09T05:08:02.391Z,7.70
2019-02-09T05:10:43.321Z,7.70
2019-02-09T05:13:24.200Z,7.70
2019-02-09T05:16:04.619Z,7.80
2019-02-09T05:18:45.027Z,7.80
2019-02-09T05:21:25.441Z,7.80
2019-02-09T05:24:06.062Z,7.80
2019-02-09T05:26:46.623Z,7.80
2019-02-09T05:29:27.156Z,7.80
2019-02-09T05:32:07.595Z,7.80
2019-02-09T05:34:48.189Z,7.80
2019-02-09T05:37:28.915Z,7.70
2019-02-09T05:40:09.351Z,7.70
2019-02-09T05:42:49.730Z,7.70
2019-02-09T05:45:30.214Z,7.80
2019-02-09T05:48:11.016Z,7.80
2019-02-09T05:50:52.047Z,7.80
2019-02-09T05:53:32.653Z,7.90
2019-02-09T05:56:13.456Z,7.90
2019-02-09T05:58:53.961Z,7.90
2019-02-09T06:01:34.505Z,7.90
2019-02-09T06:04:15.053Z,8.00
2019-02-09T06:06:55.383Z,8.00
2019-02-09T06:09:35.877Z,8.00
2019-02-09T06:12:16.367Z,8.00
2019-02-09T06:14:56.735Z,8.10
2019-02-09T06:17:37.111Z,8.10
2019-02-09T06:20:17.755Z,8.10
2019-02-09T06:22:58.420Z,8.00
2019-02-09T06:25:38.718Z,8.00
2019-02-09T06:28:19.122Z,8.00
2019-02-09T06:30:59.680Z,8.00
2019-02-09T06:33:40.168Z,8.00
2019-02-09T06:36:20.935Z,8.10
2019-02-09T06:39:01.177Z,8.10
2019-02-09T06:41:41.928Z,8.00
2019-02-09T06:44:22.284Z,8.00
2019-02-09T06:47:02.869Z,8.00
2019-02-09T06:49:43.672Z,7.90
2019-02-09T06:52:23.992Z,7.90
2019-02-09T06:55:04.720Z,7.90
2019-02-09T06:57:45.188Z,7.90
2019-02-09T07:00:25.567Z,7.90
2019-02-09T07:03:06.503Z,7.90
2019-02-09T07:05:48.776Z,8.00
2019-02-09T07:08:29.591Z,7.90
2019-02-09T07:11:10.015Z,7.90
2019-02-09T07:13:51.001Z,7.90
2019-02-09T07:16:31.952Z,7.90
2019-02-09T07:19:12.886Z,7.90
2019-02-09T07:21:53.440Z,7.90
2019-02-09T07:24:34.183Z,7.90
2019-02-09T07:27:14.839Z,7.90
2019-02-09T07:29:55.451Z,7.90
2019-02-09T07:32:35.849Z,7.90
2019-02-09T07:35:16.628Z,7.90
2019-02-09T07:37:57.108Z,7.90
2019-02-09T07:40:37.512Z,7.90
2019-02-09T07:43:17.996Z,7.90
2019-02-09T07:45:59.061Z,8.00
2019-02-09T07:48:39.983Z,8.10
2019-02-09T07:51:20.777Z,8.00
2019-02-09T07:54:01.239Z,8.10
2019-02-09T07:56:41.776Z,8.20
2019-02-09T07:59:22.791Z,8.20
2019-02-09T08:02:04.601Z,8.30
2019-02-09T08:04:45.689Z,8.30
2019-02-09T08:07:26.296Z,8.40
2019-02-09T08:10:06.799Z,8.40
2019-02-09T08:12:47.489Z,8.40
2019-02-09T08:15:28.739Z,8.40
2019-02-09T08:18:09.310Z,8.40
2019-02-09T08:20:49.771Z,8.40
2019-02-09T08:23:30.366Z,8.40
2019-02-09T08:26:10.854Z,8.40
2019-02-09T08:28:51.835Z,8.50
2019-02-09T08:31:32.495Z,8.50
2019-02-09T08:34:12.955Z,8.50
2019-02-09T08:36:53.823Z,8.40
2019-02-09T08:39:34.499Z,8.40
2019-02-09T08:42:14.855Z,8.40
2019-02-09T08:44:55.775Z,8.40
2019-02-09T08:47:36.162Z,8.40
2019-02-09T08:50:16.544Z,8.50
2019-02-09T08:52:57.351Z,8.50
2019-02-09T08:55:38.199Z,8.60
2019-02-09T08:58:18.899Z,8.80
2019-02-09T09:00:59.671Z,9.00
2019-02-09T09:03:40.307Z,9.70
2019-02-09T09:06:20.675Z,11.20
2019-02-09T09:09:01.505Z,11.10
2019-02-09T09:11:41.939Z,10.60
2019-02-09T09:14:22.480Z,10.20
2019-02-09T09:17:03.034Z,9.90
2019-02-09T09:19:43.788Z,9.60
2019-02-09T09:22:24.373Z,9.50
2019-02-09T09:25:05.143Z,9.40
2019-02-09T09:27:45.679Z,9.30
2019-02-09T09:30:26.196Z,9.30
2019-02-09T09:33:06.927Z,9.40
2019-02-09T09:35:47.255Z,9.40
2019-02-09T09:38:27.622Z,9.40
2019-02-09T09:41:08.152Z,9.40
2019-02-09T09:43:48.659Z,9.50
2019-02-09T09:46:29.236Z,9.60
2019-02-09T09:49:10.369Z,9.60
2019-02-09T09:51:50.819Z,9.70
2019-02-09T09:54:31.359Z,9.70
2019-02-09T09:57:12.005Z,9.80
2019-02-09T09:59:52.833Z,9.90
2019-02-09T10:02:36.649Z,10.00
2019-02-09T10:05:16.239Z,10.10
2019-02-09T10:07:56.744Z,10.20
2019-02-09T10:10:37.036Z,10.20
2019-02-09T10:13:18.020Z,10.20
2019-02-09T10:15:58.716Z,10.10
2019-02-09T10:18:39.392Z,10.00
2019-02-09T10:21:20.622Z,9.90
2019-02-09T10:24:01.360Z,9.90
2019-02-09T10:26:42.152Z,9.90
2019-02-09T10:29:22.507Z,9.90
2019-02-09T10:32:02.812Z,9.80
2019-02-09T10:34:43.286Z,9.70
2019-02-09T10:37:23.811Z,9.70
2019-02-09T10:40:04.275Z,9.80
2019-02-09T10:42:44.688Z,10.20
2019-02-09T10:45:25.207Z,10.30
2019-02-09T10:48:05.868Z,10.50
2019-02-09T10:50:46.672Z,11.10
2019-02-09T10:53:27.245Z,11.90
2019-02-09T10:56:07.628Z,12.40
2019-02-09T10:58:48.214Z,12.70
2019-02-09T11:01:28.631Z,12.70
2019-02-09T11:04:09.391Z,12.70
2019-02-09T11:06:50.163Z,12.60
2019-02-09T11:09:30.491Z,12.60
2019-02-09T11:12:11.159Z,12.50
2019-02-09T11:14:51.757Z,12.30
2019-02-09T11:17:32.215Z,12.00
2019-02-09T11:20:12.832Z,11.60
2019-02-09T11:22:53.490Z,11.20
2019-02-09T11:25:34.783Z,11.00
2019-02-09T11:28:15.707Z,10.90
2019-02-09T11:30:56.168Z,10.90
2019-02-09T11:33:36.659Z,10.80
2019-02-09T11:39:01.356Z,11.00
2019-02-09T11:41:41.995Z,11.00
2019-02-09T11:44:22.511Z,11.10
2019-02-09T11:47:03.774Z,10.90
2019-02-09T11:49:44.450Z,10.80
2019-02-09T11:52:25.803Z,10.70
2019-02-09T11:55:06.316Z,10.70
2019-02-09T11:57:46.959Z,10.50
2019-02-09T12:00:27.563Z,10.50
2019-02-09T12:03:14.771Z,10.40
2019-02-09T12:05:50.547Z,10.40
2019-02-09T12:08:31.343Z,10.40
2019-02-09T12:11:11.651Z,10.30
2019-02-09T12:13:55.457Z,10.30
2019-02-09T12:16:34.735Z,10.10
2019-02-09T12:19:15.332Z,10.00
2019-02-09T12:21:55.669Z,10.00
2019-02-09T12:24:36.152Z,9.90
2019-02-09T12:27:17.239Z,9.90
2019-02-09T12:29:57.891Z,9.90
2019-02-09T12:32:38.495Z,10.00
2019-02-09T12:35:19.019Z,10.10
2019-02-09T12:37:59.414Z,10.10
2019-02-09T12:40:40.242Z,10.10
2019-02-09T12:43:20.965Z,10.10
2019-02-09T12:46:01.575Z,10.20
2019-02-09T12:48:42.359Z,10.60
2019-02-09T12:51:23.076Z,10.70
2019-02-09T12:54:04.023Z,11.20
2019-02-09T12:56:44.884Z,11.30
2019-02-09T12:59:25.104Z,11.30
2019-02-09T13:02:05.555Z,11.20
2019-02-09T13:04:45.959Z,11.40
2019-02-09T13:07:26.687Z,11.90
2019-02-09T13:10:07.352Z,12.30
2019-02-09T13:12:48.075Z,12.90
2019-02-09T13:15:28.748Z,12.60
2019-02-09T13:18:09.496Z,12.50
2019-02-09T13:20:50.268Z,12.50
2019-02-09T13:23:30.867Z,12.70
2019-02-09T13:26:11.451Z,12.60
2019-02-09T13:28:51.668Z,12.30
2019-02-09T13:31:32.204Z,12.10
2019-02-09T13:34:13.384Z,11.90
2019-02-09T13:36:53.744Z,11.80
2019-02-09T13:39:34.257Z,11.80
2019-02-09T13:42:14.849Z,11.80
2019-02-09T13:44:55.399Z,11.80
2019-02-09T13:47:36.699Z,11.90
2019-02-09T13:50:20.175Z,11.70
2019-02-09T13:53:01.230Z,11.70
2019-02-09T13:55:41.756Z,11.60
2019-02-09T13:58:22.672Z,11.50
2019-02-09T14:01:03.698Z,11.40
2019-02-09T14:03:46.810Z,11.30
2019-02-09T14:06:26.060Z,11.20
2019-02-09T14:09:06.747Z,11.20
2019-02-09T14:11:47.429Z,11.10
2019-02-09T14:14:28.081Z,11.10
2019-02-09T14:17:08.693Z,11.10
2019-02-09T14:19:49.484Z,11.20
2019-02-09T14:22:30.244Z,11.10
2019-02-09T14:25:10.927Z,11.00
2019-02-09T14:27:53.155Z,11.00
2019-02-09T14:30:33.911Z,11.00
2019-02-09T14:33:14.703Z,11.00
2019-02-09T14:35:55.568Z,10.90
2019-02-09T14:38:35.975Z,10.80
2019-02-09T14:41:16.848Z,10.80
2019-02-09T14:43:57.347Z,10.80
2019-02-09T14:46:39.911Z,10.80
2019-02-09T14:49:21.008Z,10.70
2019-02-09T14:52:01.855Z,10.70
2019-02-09T14:54:42.407Z,10.70
2019-02-09T14:57:23.299Z,10.70
2019-02-09T15:00:03.871Z,10.60
2019-02-09T15:02:44.752Z,10.50
2019-02-09T15:05:25.431Z,10.40
2019-02-09T15:08:05.915Z,10.30
2019-02-09T15:10:46.703Z,10.20
2019-02-09T15:13:27.277Z,10.20
2019-02-09T15:16:08.143Z,10.10
2019-02-09T15:18:48.664Z,10.10
2019-02-09T15:21:29.351Z,10.00
2019-02-09T15:24:10.227Z,10.00
2019-02-09T15:26:50.709Z,10.00
2019-02-09T15:32:15.843Z,10.00
2019-02-09T15:34:56.496Z,10.00
2019-02-09T15:37:37.154Z,10.00
2019-02-09T15:40:17.995Z,10.10
2019-02-09T15:42:58.523Z,10.10
2019-02-09T15:45:39.363Z,10.10
2019-02-09T15:48:20.372Z,10.00
2019-02-09T15:51:01.026Z,10.00
2019-02-09T15:53:41.372Z,10.00
2019-02-09T15:56:22.144Z,10.00
2019-02-09T15:59:02.903Z,10.00
2019-02-09T16:01:43.432Z,10.00
2019-02-09T16:04:23.933Z,10.00
2019-02-09T16:07:04.844Z,9.90
2019-02-09T16:09:45.371Z,9.80
2019-02-09T16:12:26.155Z,9.80
2019-02-09T16:15:06.683Z,9.80
2019-02-09T16:17:47.924Z,9.70
2019-02-09T16:20:28.655Z,9.60
2019-02-09T16:23:09.380Z,9.60
2019-02-09T16:25:49.871Z,9.60
2019-02-09T16:28:30.527Z,9.60
2019-02-09T16:31:11.385Z,9.60
2019-02-09T16:33:52.177Z,9.40
2019-02-09T16:36:32.840Z,9.40
2019-02-09T16:39:13.588Z,9.30
2019-02-09T16:41:54.211Z,9.30
2019-02-09T16:44:35.143Z,9.20
2019-02-09T16:47:16.166Z,9.10
2019-02-09T16:49:56.963Z,9.00
2019-02-09T16:52:37.216Z,8.90
2019-02-09T16:55:18.471Z,8.80
2019-02-09T16:57:59.071Z,8.70
2019-02-09T17:00:39.292Z,8.70
2019-02-09T17:03:20.045Z,8.60
2019-02-09T17:06:00.868Z,8.60
2019-02-09T17:08:41.695Z,8.50
2019-02-09T17:11:22.504Z,8.50
2019-02-09T17:14:02.987Z,8.40
2019-02-09T17:16:43.672Z,8.40
2019-02-09T17:19:24.582Z,8.30
2019-02-09T17:22:05.096Z,8.30
2019-02-09T17:24:45.680Z,8.30
2019-02-09T17:27:26.544Z,8.20
2019-02-09T17:30:07.247Z,8.10
2019-02-09T17:32:48.509Z,8.10
2019-02-09T17:35:29.035Z,8.00
2019-02-09T17:38:09.923Z,8.00
2019-02-09T17:40:50.292Z,8.00
2019-02-09T17:43:31.315Z,7.90
2019-02-09T17:46:12.216Z,7.90
2019-02-09T17:48:52.543Z,7.80
2019-02-09T17:51:33.248Z,7.70
2019-02-09T17:54:13.852Z,7.70
2019-02-09T17:56:54.238Z,7.70
2019-02-09T17:59:34.819Z,7.70
2019-02-09T18:02:15.659Z,7.80
2019-02-09T18:04:56.592Z,7.80
2019-02-09T18:07:37.387Z,7.80
2019-02-09T18:10:18.195Z,7.80
2019-02-09T18:12:59.091Z,7.80
2019-02-09T18:15:39.824Z,7.80
2019-02-09T18:18:20.575Z,7.70
2019-02-09T18:21:00.991Z,7.70
2019-02-09T18:23:42.005Z,7.70
2019-02-09T18:26:22.843Z,7.70
2019-02-09T18:29:03.179Z,7.70
2019-02-09T18:31:44.138Z,7.70
2019-02-09T18:34:24.528Z,7.60
2019-02-09T18:37:05.296Z,7.60
2019-02-09T18:39:46.355Z,7.60
2019-02-09T18:42:27.135Z,7.50
2019-02-09T18:45:08.023Z,7.50
2019-02-09T18:47:48.692Z,7.50
2019-02-09T18:50:29.352Z,7.40
2019-02-09T18:53:10.371Z,7.40
2019-02-09T18:55:51.180Z,7.40
2019-02-09T18:58:31.571Z,7.30
2019-02-09T19:01:11.999Z,7.30
2019-02-09T19:03:52.740Z,7.30
2019-02-09T19:06:33.579Z,7.30
2019-02-09T19:09:14.159Z,7.30
2019-02-09T19:11:55.167Z,7.30
2019-02-09T19:14:36.032Z,7.30
2019-02-09T19:17:16.648Z,7.40
2019-02-09T19:19:57.188Z,7.40
2019-02-09T19:22:37.639Z,7.50
2019-02-09T19:25:18.504Z,7.50
2019-02-09T19:27:59.349Z,7.50
2019-02-09T19:30:39.865Z,7.50
2019-02-09T19:33:20.625Z,7.50
2019-02-09T19:36:01.259Z,7.50
2019-02-09T19:38:42.043Z,7.50
2019-02-09T19:41:22.700Z,7.50
2019-02-09T19:44:03.153Z,7.40
2019-02-09T19:46:43.662Z,7.40
2019-02-09T19:49:24.189Z,7.40
2019-02-09T19:52:04.972Z,7.30
2019-02-09T19:54:45.752Z,7.30
2019-02-09T19:57:25.964Z,7.20
2019-02-09T20:00:06.167Z,7.20
2019-02-09T20:02:46.867Z,7.20
2019-02-09T20:05:27.903Z,7.10
2019-02-09T20:08:08.241Z,7.20
2019-02-09T20:10:48.780Z,7.20
2019-02-09T20:13:29.646Z,7.20
2019-02-09T20:16:10.461Z,7.20
2019-02-09T20:18:51.890Z,7.30
2019-02-09T20:21:32.270Z,7.30
2019-02-09T20:24:12.879Z,7.30
2019-02-09T20:26:53.771Z,7.30
2019-02-09T20:29:34.510Z,7.30
2019-02-09T20:32:15.100Z,7.20
2019-02-09T20:34:55.615Z,7.20
2019-02-09T20:37:36.004Z,7.20
2019-02-09T20:40:16.459Z,7.20
2019-02-09T20:43:02.199Z,7.10
2019-02-09T20:45:39.783Z,7.10
2019-02-09T20:48:20.420Z,7.10
2019-02-09T20:51:00.851Z,7.10
2019-02-09T20:53:41.720Z,7.00
2019-02-09T20:56:22.071Z,7.00
2019-02-09T20:59:02.713Z,7.00
2019-02-09T21:01:43.247Z,6.90
2019-02-09T21:04:23.686Z,6.90
2019-02-09T21:07:04.119Z,6.90
2019-02-09T21:09:44.435Z,6.90
2019-02-09T21:12:24.999Z,6.90
2019-02-09T21:15:05.486Z,6.90
2019-02-09T21:17:46.009Z,6.90
2019-02-09T21:20:26.571Z,6.90
2019-02-09T21:23:07.443Z,6.90
2019-02-09T21:25:47.971Z,6.90
2019-02-09T21:28:28.741Z,7.00
2019-02-09T21:31:09.262Z,7.00
2019-02-09T21:33:49.976Z,7.00
2019-02-09T21:36:30.979Z,7.00
2019-02-09T21:39:11.740Z,7.00
2019-02-09T21:41:52.503Z,7.00
2019-02-09T21:44:33.216Z,7.10
2019-02-09T21:47:14.047Z,7.10
2019-02-09T21:49:54.641Z,7.10
2019-02-09T21:52:35.157Z,7.10
2019-02-09T21:55:16.399Z,7.20
2019-02-09T21:57:56.742Z,7.20
2019-02-09T22:00:37.723Z,7.20
2019-02-09T22:03:18.402Z,7.20
2019-02-09T22:05:58.851Z,7.10
2019-02-09T22:08:39.929Z,7.10
2019-02-09T22:11:20.603Z,7.20
2019-02-09T22:14:01.333Z,7.20
2019-02-09T22:16:42.856Z,7.30
2019-02-09T22:19:23.402Z,7.30
2019-02-09T22:22:04.201Z,7.30
2019-02-09T22:24:44.576Z,7.40
2019-02-09T22:27:24.780Z,7.40
2019-02-09T22:30:05.243Z,7.40
2019-02-09T22:32:45.789Z,7.40
2019-02-09T22:35:26.101Z,7.40
2019-02-09T22:38:06.366Z,7.40
2019-02-09T22:40:47.351Z,7.40
2019-02-09T22:43:27.927Z,7.40
2019-02-09T22:46:08.891Z,7.40
2019-02-09T22:48:49.503Z,7.40
2019-02-09T22:51:29.859Z,7.40
2019-02-09T22:54:11.035Z,7.40
2019-02-09T22:56:51.568Z,7.30
2019-02-09T22:59:32.180Z,7.40
2019-02-09T23:02:13.184Z,7.40
2019-02-09T23:04:53.736Z,7.30
2019-02-09T23:07:34.371Z,7.30
2019-02-09T23:10:15.316Z,7.30
2019-02-09T23:12:55.695Z,7.30
2019-02-09T23:15:36.295Z,7.30
2019-02-09T23:18:17.425Z,7.30
2019-02-09T23:20:57.995Z,7.30
2019-02-09T23:23:38.220Z,7.30
2019-02-09T23:26:18.793Z,7.20
2019-02-09T23:28:59.549Z,7.20
2019-02-09T23:31:40.154Z,7.20
2019-02-09T23:34:20.327Z,7.20
2019-02-09T23:37:00.775Z,7.20
2019-02-09T23:39:41.527Z,7.30
2019-02-09T23:42:22.225Z,7.30
2019-02-09T23:45:02.715Z,7.30
2019-02-09T23:47:43.107Z,7.50
2019-02-09T23:50:23.723Z,7.40
2019-02-09T23:53:03.960Z,7.50
2019-02-09T23:55:44.485Z,7.50
2019-02-09T23:58:24.963Z,7.60
